SKVP/VUP METAR and TAF weather

Enter ICAO airport designator
Station Type Date Time Source
SKVP METAR 2020/09/30 19:00 UTC NOAA

SKVP 301900Z 21008KT 9999 FEW015TCU SCT100 31/24 A2982 RMK TCU/NE/E


Station Type Date Time Source
SKVP Decoded METAR 2020/09/30 19:00 UTC NOAA

Valledupar / Alfonso Lopez, Colombia (SKVP) 10-26N 073-15W
Sep 30, 2020 - 03:00 PM EDT / 2020.09.30 1900 UTC
Wind: from the SSW (210 degrees) at 9 MPH (8 KT):0
Visibility: greater than 7 mile(s):0
Sky conditions: partly cloudy
Weather: Towering cumulus clouds observed
Temperature: 87 F (31 C)
Heat index: 95.7 F (35.4 C):1
Dew Point: 75 F (24 C)
Relative Humidity: 66%
Pressure (altimeter): 29.82 in. Hg (1009 hPa)
ob: SKVP 301900Z 21008KT 9999 FEW015TCU SCT100 31/24 A2982 RMK TCU/NE/E
cycle: 19

Station Type Date Time Source
SKVP TAF UTC NOAA

Error!

Example: see airport list